createdAt,value
2017-11-22T00:01:55.624Z,19.80
2017-11-22T00:04:21.782Z,14.50
2017-11-22T00:06:47.866Z,16.10
2017-11-22T00:09:14.043Z,13.53
2017-11-22T00:11:40.153Z,14.10
2017-11-22T00:14:07.115Z,17.53
2017-11-22T00:16:33.982Z,13.83
2017-11-22T00:19:00.090Z,16.50
2017-11-22T00:21:26.214Z,11.93
2017-11-22T00:23:52.412Z,21.77
2017-11-22T00:26:19.552Z,17.00
2017-11-22T00:28:46.526Z,16.27
2017-11-22T00:31:12.957Z,15.47
2017-11-22T00:33:42.536Z,16.60
2017-11-22T00:36:08.803Z,21.77
2017-11-22T00:38:35.358Z,20.20
2017-11-22T00:41:02.363Z,21.80
2017-11-22T00:43:28.615Z,17.27
2017-11-22T00:45:54.830Z,20.77
2017-11-22T00:48:21.038Z,16.97
2017-11-22T00:50:48.030Z,18.27
2017-11-22T00:53:20.736Z,17.80
2017-11-22T00:55:47.135Z,23.03
2017-11-22T00:58:15.400Z,20.00
2017-11-22T01:00:42.393Z,17.37
2017-11-22T01:03:08.738Z,15.90
2017-11-22T01:05:35.778Z,12.57
2017-11-22T01:08:02.059Z,15.33
2017-11-22T01:10:28.615Z,18.03
2017-11-22T01:12:56.503Z,18.40
2017-11-22T01:15:25.436Z,13.90
2017-11-22T01:17:53.401Z,18.30
2017-11-22T01:20:24.438Z,25.87
2017-11-22T01:22:52.510Z,23.57
2017-11-22T01:25:21.335Z,23.70
2017-11-22T01:27:49.226Z,18.23
2017-11-22T01:30:17.141Z,17.73
2017-11-22T01:32:45.243Z,19.07
2017-11-22T01:35:13.185Z,20.50
2017-11-22T01:37:41.070Z,21.47
2017-11-22T01:40:09.034Z,25.17
2017-11-22T01:42:37.932Z,22.43
2017-11-22T01:45:05.998Z,18.80
2017-11-22T01:47:34.015Z,24.83
2017-11-22T01:50:02.026Z,24.57
2017-11-22T01:52:29.965Z,34.60
2017-11-22T01:54:58.070Z,18.10
2017-11-22T01:57:26.013Z,22.23
2017-11-22T01:59:54.859Z,20.53
2017-11-22T02:02:22.785Z,19.93
2017-11-22T02:04:50.741Z,21.47
2017-11-22T02:07:18.715Z,19.33
2017-11-22T02:09:46.942Z,24.77
2017-11-22T02:12:15.389Z,32.43
2017-11-22T02:14:43.521Z,39.50
2017-11-22T02:17:11.541Z,42.90
2017-11-22T02:19:39.701Z,31.40
2017-11-22T02:22:07.654Z,36.53
2017-11-22T02:24:35.649Z,41.93
2017-11-22T02:27:03.542Z,41.20
2017-11-22T02:29:31.447Z,44.03
2017-11-22T02:31:59.492Z,48.63
2017-11-22T02:34:27.405Z,47.03
2017-11-22T02:36:55.380Z,56.23
2017-11-22T02:39:23.261Z,49.53
2017-11-22T02:41:51.130Z,61.17
2017-11-22T02:44:19.046Z,62.17
2017-11-22T02:46:46.949Z,61.53
2017-11-22T02:49:14.980Z,54.03
2017-11-22T02:51:42.966Z,57.93
2017-11-22T02:54:10.856Z,50.13
2017-11-22T02:56:38.835Z,52.77
2017-11-22T02:59:07.337Z,46.60
2017-11-22T03:01:35.273Z,48.17
2017-11-22T03:04:03.238Z,44.30
2017-11-22T03:06:31.188Z,38.63
2017-11-22T03:08:59.181Z,33.70
2017-11-22T03:11:27.178Z,29.40
2017-11-22T03:13:55.237Z,27.83
2017-11-22T03:16:23.207Z,27.97
2017-11-22T03:18:51.173Z,21.23
2017-11-22T03:21:19.160Z,25.13
2017-11-22T03:23:47.087Z,25.20
2017-11-22T03:26:15.006Z,24.60
2017-11-22T03:28:43.150Z,24.60
2017-11-22T03:31:11.066Z,28.07
2017-11-22T03:33:38.914Z,27.23
2017-11-22T03:36:06.864Z,29.07
2017-11-22T03:38:34.803Z,27.63
2017-11-22T03:41:03.725Z,27.30
2017-11-22T03:43:31.762Z,33.53
2017-11-22T03:45:59.669Z,34.67
2017-11-22T03:48:27.557Z,37.43
2017-11-22T03:51:01.679Z,35.40
2017-11-22T03:53:35.781Z,40.10
2017-11-22T03:56:03.645Z,37.37
2017-11-22T03:58:31.565Z,36.90
2017-11-22T04:00:59.425Z,45.83
2017-11-22T04:03:27.343Z,39.97
2017-11-22T04:05:55.225Z,39.80
2017-11-22T04:08:25.973Z,41.63
2017-11-22T04:10:54.867Z,43.50
2017-11-22T04:13:22.725Z,41.57
2017-11-22T04:15:50.608Z,43.37
2017-11-22T04:18:19.281Z,34.03
2017-11-22T04:20:53.616Z,50.57
2017-11-22T04:23:21.562Z,38.33
2017-11-22T04:25:49.497Z,43.60
2017-11-22T04:28:17.421Z,37.27
2017-11-22T04:30:45.722Z,36.30
2017-11-22T04:33:14.231Z,34.83
2017-11-22T04:35:42.141Z,36.23
2017-11-22T04:38:10.034Z,40.03
2017-11-22T04:40:37.981Z,44.00
2017-11-22T04:43:08.850Z,44.60
2017-11-22T04:45:36.762Z,40.20
2017-11-22T04:48:04.753Z,39.17
2017-11-22T04:50:32.602Z,38.80
2017-11-22T04:53:00.483Z,42.33
2017-11-22T04:55:28.333Z,39.30
2017-11-22T04:57:56.246Z,36.80
2017-11-22T05:00:24.113Z,39.03
2017-11-22T05:02:51.954Z,35.97
2017-11-22T05:05:19.792Z,39.93
2017-11-22T05:07:47.665Z,42.83
2017-11-22T05:10:15.573Z,37.20
2017-11-22T05:12:43.433Z,42.07
2017-11-22T05:15:11.301Z,39.33
2017-11-22T05:17:39.134Z,40.53
2017-11-22T05:20:06.990Z,37.57
2017-11-22T05:22:34.897Z,36.00
2017-11-22T05:25:02.730Z,44.53
2017-11-22T05:27:30.575Z,34.13
2017-11-22T05:29:58.573Z,33.10
2017-11-22T05:32:26.438Z,38.07
2017-11-22T05:34:54.328Z,35.13
2017-11-22T05:37:22.242Z,33.23
2017-11-22T05:39:50.077Z,35.10
2017-11-22T05:42:17.987Z,38.40
2017-11-22T05:44:45.946Z,30.27
2017-11-22T05:47:13.828Z,39.00
2017-11-22T05:49:41.685Z,34.13
2017-11-22T05:52:09.646Z,38.77
2017-11-22T05:54:37.557Z,37.57
2017-11-22T05:57:05.592Z,34.00
2017-11-22T05:59:33.531Z,35.47
2017-11-22T06:02:01.381Z,34.43
2017-11-22T06:04:29.327Z,32.40
2017-11-22T06:06:57.276Z,35.00
2017-11-22T06:09:25.141Z,35.10
2017-11-22T06:11:52.989Z,32.10
2017-11-22T06:14:20.855Z,36.07
2017-11-22T06:16:48.803Z,31.80
2017-11-22T06:19:17.582Z,32.50
2017-11-22T06:21:45.562Z,36.63
2017-11-22T06:24:13.472Z,30.43
2017-11-22T06:26:41.329Z,33.27
2017-11-22T06:29:09.278Z,38.03
2017-11-22T06:31:37.194Z,30.50
2017-11-22T06:34:05.081Z,36.43
2017-11-22T06:36:34.010Z,32.80
2017-11-22T06:39:04.974Z,34.63
2017-11-22T06:41:32.894Z,31.80
2017-11-22T06:44:00.789Z,35.03
2017-11-22T06:46:28.656Z,36.73
2017-11-22T06:48:56.516Z,35.33
2017-11-22T06:51:24.458Z,35.70
2017-11-22T06:53:52.371Z,39.03
2017-11-22T06:56:20.284Z,33.87
2017-11-22T06:58:48.208Z,32.03
2017-11-22T07:01:17.116Z,36.93
2017-11-22T07:03:51.051Z,36.10
2017-11-22T07:06:18.984Z,36.93
2017-11-22T07:08:47.020Z,41.43
2017-11-22T07:11:14.912Z,36.93
2017-11-22T07:13:42.827Z,36.23
2017-11-22T07:16:16.863Z,36.23
2017-11-22T07:18:45.730Z,39.03
2017-11-22T07:21:13.575Z,40.77
2017-11-22T07:23:41.509Z,44.83
2017-11-22T07:26:09.435Z,37.90
2017-11-22T07:28:37.341Z,42.10
2017-11-22T07:31:05.261Z,40.17
2017-11-22T07:33:33.257Z,44.07
2017-11-22T07:36:07.349Z,42.87
2017-11-22T07:38:35.252Z,31.50
2017-11-22T07:41:03.263Z,42.10
2017-11-22T07:43:31.249Z,38.97
2017-11-22T07:45:59.214Z,35.93
2017-11-22T07:48:28.180Z,37.93
2017-11-22T07:50:58.110Z,37.07
2017-11-22T07:53:26.182Z,39.87
2017-11-22T07:55:54.105Z,39.03
2017-11-22T07:58:22.059Z,32.53
2017-11-22T08:00:50.054Z,38.80
2017-11-22T08:03:20.901Z,27.30
2017-11-22T08:05:48.896Z,30.70
2017-11-22T08:08:16.792Z,36.90
2017-11-22T08:10:44.758Z,29.27
2017-11-22T08:13:12.791Z,32.90
2017-11-22T08:15:40.694Z,33.53
2017-11-22T08:18:08.570Z,21.83
2017-11-22T08:20:36.490Z,25.40
2017-11-22T08:23:04.632Z,28.57
2017-11-22T08:25:32.511Z,30.53
2017-11-22T08:28:00.512Z,21.97
2017-11-22T08:30:28.453Z,21.03
2017-11-22T08:32:56.309Z,28.40
2017-11-22T08:35:24.233Z,21.70
2017-11-22T08:37:52.103Z,21.80
2017-11-22T08:40:20.099Z,20.20
2017-11-22T08:42:54.106Z,24.20
2017-11-22T08:45:22.055Z,23.93
2017-11-22T08:47:50.008Z,19.90
2017-11-22T08:50:17.974Z,23.17
2017-11-22T08:52:45.983Z,21.37
2017-11-22T08:55:16.772Z,23.43
2017-11-22T08:57:50.881Z,22.20
2017-11-22T09:00:19.357Z,24.70
2017-11-22T09:02:49.170Z,21.90
2017-11-22T09:05:17.438Z,22.67
2017-11-22T09:07:45.501Z,19.93
2017-11-22T09:10:13.369Z,26.60
2017-11-22T09:12:44.237Z,20.20
2017-11-22T09:15:12.121Z,20.37
2017-11-22T09:17:39.986Z,23.63
2017-11-22T09:20:07.905Z,22.00
2017-11-22T09:22:35.861Z,20.00
2017-11-22T09:25:05.671Z,21.53
2017-11-22T09:27:39.606Z,24.57
2017-11-22T09:30:12.332Z,28.40
2017-11-22T09:32:40.282Z,30.90
2017-11-22T09:35:11.036Z,18.17
2017-11-22T09:37:38.925Z,19.00
2017-11-22T09:40:06.799Z,21.17
2017-11-22T09:42:41.514Z,22.80
2017-11-22T09:45:09.410Z,17.20
2017-11-22T09:47:37.283Z,18.20
2017-11-22T09:50:05.137Z,17.40
2017-11-22T09:52:33.031Z,18.40
2017-11-22T09:55:00.890Z,16.47
2017-11-22T09:57:28.818Z,20.03
2017-11-22T09:59:56.951Z,18.80
2017-11-22T10:02:24.796Z,16.87
2017-11-22T10:04:52.739Z,16.20
2017-11-22T10:07:20.644Z,21.10
2017-11-22T10:09:48.541Z,17.60
2017-11-22T10:12:16.406Z,22.17
2017-11-22T10:14:44.267Z,17.30
2017-11-22T10:17:12.138Z,24.17
2017-11-22T10:19:42.942Z,13.33
2017-11-22T10:22:10.804Z,16.13
2017-11-22T10:24:43.440Z,29.73
2017-11-22T10:27:17.416Z,15.23
2017-11-22T10:29:45.258Z,17.80
2017-11-22T10:32:19.445Z,19.10
2017-11-22T10:34:48.296Z,19.47
2017-11-22T10:37:16.149Z,15.50
2017-11-22T10:39:44.050Z,13.57
2017-11-22T10:42:11.924Z,15.87
2017-11-22T10:44:39.781Z,16.13
2017-11-22T10:47:07.665Z,17.60
2017-11-22T10:49:35.502Z,16.00
2017-11-22T10:52:03.394Z,16.90
2017-11-22T10:54:31.267Z,16.70
2017-11-22T10:56:59.132Z,20.43
2017-11-22T10:59:26.993Z,17.03
2017-11-22T11:01:54.916Z,18.43
2017-11-22T11:04:22.754Z,16.80
2017-11-22T11:06:50.627Z,16.70
2017-11-22T11:09:18.519Z,13.90
2017-11-22T11:11:46.413Z,21.73
2017-11-22T11:14:14.284Z,13.67
2017-11-22T11:16:42.169Z,14.57
2017-11-22T11:19:10.055Z,16.10
2017-11-22T11:21:37.997Z,16.73
2017-11-22T11:24:05.878Z,13.97
2017-11-22T11:26:33.737Z,22.23
2017-11-22T11:29:01.673Z,16.13
2017-11-22T11:31:29.570Z,13.77
2017-11-22T11:33:57.494Z,16.30
2017-11-22T11:36:31.325Z,26.77
2017-11-22T11:38:59.184Z,12.87
2017-11-22T11:41:27.037Z,14.27
2017-11-22T11:43:54.933Z,17.40
2017-11-22T11:46:21.266Z,16.03
2017-11-22T11:48:47.426Z,16.00
2017-11-22T11:51:13.645Z,14.27
2017-11-22T11:53:39.787Z,14.70
2017-11-22T11:56:06.002Z,18.70
2017-11-22T11:58:32.902Z,17.80
2017-11-22T12:00:59.053Z,14.87
2017-11-22T12:03:25.183Z,15.70
2017-11-22T12:05:52.297Z,14.70
2017-11-22T12:08:19.610Z,13.67
2017-11-22T12:10:45.767Z,12.27
2017-11-22T12:13:11.899Z,16.13
2017-11-22T12:15:38.816Z,14.60
2017-11-22T12:18:04.918Z,14.40
2017-11-22T12:20:31.793Z,13.07
2017-11-22T12:23:03.982Z,13.60
2017-11-22T12:25:30.154Z,16.10
2017-11-22T12:27:56.306Z,10.67
2017-11-22T12:30:22.698Z,15.57
2017-11-22T12:32:48.787Z,13.53
2017-11-22T12:35:14.990Z,16.30
2017-11-22T12:37:41.142Z,14.60
2017-11-22T12:40:07.252Z,12.90
2017-11-22T12:42:35.137Z,15.07
2017-11-22T12:45:03.033Z,17.60
2017-11-22T12:47:30.901Z,17.23
2017-11-22T12:49:58.826Z,16.60
2017-11-22T12:52:26.722Z,19.53
2017-11-22T12:54:54.645Z,16.27
2017-11-22T12:57:22.687Z,18.17
2017-11-22T12:59:50.583Z,12.13
2017-11-22T13:02:18.513Z,14.37
2017-11-22T13:04:46.415Z,17.10
2017-11-22T13:07:14.333Z,15.93
2017-11-22T13:09:42.295Z,14.70
2017-11-22T13:12:10.375Z,11.93
2017-11-22T13:14:38.248Z,14.90
2017-11-22T13:17:06.166Z,18.53
2017-11-22T13:19:34.045Z,13.57
2017-11-22T13:22:01.985Z,15.57
2017-11-22T13:24:31.046Z,11.60
2017-11-22T13:26:58.945Z,14.43
2017-11-22T13:29:26.809Z,13.40
2017-11-22T13:31:54.690Z,17.50
2017-11-22T13:34:22.607Z,16.00
2017-11-22T13:36:50.522Z,16.00
2017-11-22T13:39:18.366Z,12.37
2017-11-22T13:41:46.249Z,14.80
2017-11-22T13:44:14.101Z,14.37
2017-11-22T13:46:41.997Z,12.53
2017-11-22T13:49:10.017Z,12.30
2017-11-22T13:51:37.876Z,20.57
2017-11-22T13:54:05.763Z,14.70
2017-11-22T13:56:33.667Z,16.57
2017-11-22T13:59:01.501Z,13.83
2017-11-22T14:01:29.399Z,12.60
2017-11-22T14:03:57.261Z,14.90
2017-11-22T14:06:25.114Z,16.17
2017-11-22T14:08:52.970Z,12.37
2017-11-22T14:11:20.844Z,16.53
2017-11-22T14:13:48.691Z,14.50
2017-11-22T14:16:16.556Z,14.50
2017-11-22T14:18:44.429Z,19.50
2017-11-22T14:21:13.009Z,12.90
2017-11-22T14:23:41.955Z,14.10
2017-11-22T14:26:09.858Z,14.93
2017-11-22T14:28:37.739Z,16.07
2017-11-22T14:31:05.604Z,13.17
2017-11-22T14:33:33.768Z,13.17
2017-11-22T14:36:01.675Z,14.87
2017-11-22T14:38:29.575Z,14.50
2017-11-22T14:40:57.512Z,10.90
2017-11-22T14:43:25.442Z,14.23
2017-11-22T14:45:53.298Z,16.60
2017-11-22T14:48:21.249Z,16.70
2017-11-22T14:50:49.114Z,16.30
2017-11-22T14:53:16.990Z,15.60
2017-11-22T14:55:44.875Z,16.57
2017-11-22T14:58:13.948Z,13.17
2017-11-22T15:00:41.859Z,14.03
2017-11-22T15:03:09.842Z,13.27
2017-11-22T15:05:38.297Z,16.60
2017-11-22T15:08:06.228Z,22.07
2017-11-22T15:10:34.089Z,14.80
2017-11-22T15:13:01.991Z,15.50
2017-11-22T15:15:29.885Z,17.50
2017-11-22T15:17:57.791Z,16.63
2017-11-22T15:20:25.637Z,14.23
2017-11-22T15:22:51.730Z,16.97
2017-11-22T15:25:17.829Z,20.67
2017-11-22T15:27:44.020Z,16.43
2017-11-22T15:30:10.255Z,16.17
2017-11-22T15:32:36.366Z,17.13
2017-11-22T15:35:02.468Z,16.03
2017-11-22T15:37:29.333Z,18.13
2017-11-22T15:39:55.491Z,16.07
2017-11-22T15:42:21.682Z,16.50
2017-11-22T15:44:47.806Z,15.70
2017-11-22T15:47:13.952Z,24.30
2017-11-22T15:49:40.854Z,15.83
2017-11-22T15:52:06.949Z,15.90
2017-11-22T15:54:33.074Z,16.87
2017-11-22T15:56:59.178Z,19.87
2017-11-22T15:59:25.277Z,19.93
2017-11-22T16:01:51.538Z,22.67
2017-11-22T16:04:17.700Z,19.20
2017-11-22T16:06:44.518Z,17.30
2017-11-22T16:09:11.479Z,20.47
2017-11-22T16:11:38.345Z,20.80
2017-11-22T16:14:04.461Z,17.70
2017-11-22T16:16:30.599Z,22.10
2017-11-22T16:18:56.910Z,20.50
2017-11-22T16:21:23.016Z,20.83
2017-11-22T16:23:49.167Z,26.10
2017-11-22T16:26:15.291Z,28.57
2017-11-22T16:28:42.400Z,29.97
2017-11-22T16:31:08.540Z,27.90
2017-11-22T16:33:34.695Z,24.27
2017-11-22T16:36:00.835Z,28.17
2017-11-22T16:38:27.014Z,26.57
2017-11-22T16:40:53.101Z,22.50
2017-11-22T16:43:19.386Z,23.40
2017-11-22T16:45:45.572Z,23.43
2017-11-22T16:48:11.787Z,20.47
2017-11-22T16:50:37.990Z,21.63
2017-11-22T16:53:04.846Z,31.70
2017-11-22T16:55:30.954Z,28.80
2017-11-22T16:57:57.067Z,26.13
2017-11-22T17:00:23.199Z,22.87
2017-11-22T17:02:49.333Z,23.13
2017-11-22T17:05:15.487Z,23.60
2017-11-22T17:07:41.627Z,24.83
2017-11-22T17:10:08.008Z,27.50
2017-11-22T17:12:34.233Z,23.00
2017-11-22T17:15:00.362Z,20.83
2017-11-22T17:17:26.493Z,21.63
2017-11-22T17:19:53.070Z,27.83
2017-11-22T17:22:20.422Z,19.70
2017-11-22T17:24:46.688Z,22.37
2017-11-22T17:27:12.836Z,21.70
2017-11-22T17:29:40.260Z,22.53
2017-11-22T17:32:06.380Z,18.97
2017-11-22T17:34:32.482Z,17.63
2017-11-22T17:36:58.694Z,24.70
2017-11-22T17:39:24.809Z,22.57
2017-11-22T17:41:50.900Z,16.70
2017-11-22T17:44:17.055Z,17.57
2017-11-22T17:46:43.183Z,24.23
2017-11-22T17:49:09.358Z,27.93
2017-11-22T17:51:35.587Z,22.80
2017-11-22T17:54:01.731Z,25.37
2017-11-22T17:56:28.029Z,21.73
2017-11-22T17:58:54.209Z,28.20
2017-11-22T18:01:20.327Z,21.67
2017-11-22T18:03:46.424Z,22.07
2017-11-22T18:06:14.322Z,23.70
2017-11-22T18:08:42.353Z,24.77
2017-11-22T18:11:10.965Z,23.60
2017-11-22T18:13:38.875Z,23.83
2017-11-22T18:16:06.849Z,19.13
2017-11-22T18:18:34.714Z,23.50
2017-11-22T18:21:02.667Z,24.60
2017-11-22T18:23:30.521Z,27.50
2017-11-22T18:25:58.398Z,25.60
2017-11-22T18:28:26.345Z,25.57
2017-11-22T18:30:54.290Z,23.00
2017-11-22T18:33:22.840Z,21.57
2017-11-22T18:35:50.776Z,28.17
2017-11-22T18:38:18.854Z,21.30
2017-11-22T18:40:46.534Z,21.70
2017-11-22T18:43:12.734Z,24.63
2017-11-22T18:45:38.882Z,27.37
2017-11-22T18:48:05.163Z,22.33
2017-11-22T18:50:31.425Z,23.20
2017-11-22T18:52:58.292Z,20.43
2017-11-22T18:55:24.411Z,24.33
2017-11-22T18:57:51.518Z,29.00
2017-11-22T19:00:17.612Z,27.57
2017-11-22T19:02:43.762Z,24.40
2017-11-22T19:05:10.649Z,24.63
2017-11-22T19:07:36.744Z,23.50
2017-11-22T19:10:03.619Z,25.70
2017-11-22T19:12:30.546Z,25.13
2017-11-22T19:14:57.421Z,23.50
2017-11-22T19:17:25.295Z,27.40
2017-11-22T19:19:54.190Z,26.93
2017-11-22T19:22:22.033Z,29.60
2017-11-22T19:24:51.913Z,25.93
2017-11-22T19:27:19.821Z,28.93
2017-11-22T19:29:47.713Z,29.43
2017-11-22T19:32:15.607Z,32.00
2017-11-22T19:34:43.840Z,32.20
2017-11-22T19:37:11.839Z,29.93
2017-11-22T19:39:39.781Z,26.53
2017-11-22T19:42:07.717Z,24.70
2017-11-22T19:44:35.581Z,38.60
2017-11-22T19:47:03.427Z,27.33
2017-11-22T19:49:31.457Z,25.80
2017-11-22T19:51:59.472Z,28.17
2017-11-22T19:54:27.435Z,28.50
2017-11-22T19:56:55.361Z,30.63
2017-11-22T19:59:23.257Z,37.00
2017-11-22T20:01:51.290Z,33.17
2017-11-22T20:04:19.188Z,28.13
2017-11-22T20:06:53.493Z,34.50
2017-11-22T20:09:21.446Z,30.40
2017-11-22T20:11:49.495Z,33.27
2017-11-22T20:14:17.449Z,38.07
2017-11-22T20:16:45.457Z,33.20
2017-11-22T20:19:13.390Z,31.90
2017-11-22T20:21:43.285Z,33.83
2017-11-22T20:24:11.150Z,39.03
2017-11-22T20:26:39.040Z,29.30
2017-11-22T20:29:06.894Z,28.70
2017-11-22T20:31:34.781Z,26.70
2017-11-22T20:34:02.774Z,29.87
2017-11-22T20:36:30.653Z,31.60
2017-11-22T20:38:58.506Z,29.67
2017-11-22T20:41:26.485Z,30.50
2017-11-22T20:43:54.381Z,29.50
2017-11-22T20:46:22.304Z,27.53
2017-11-22T20:48:50.433Z,31.90
2017-11-22T20:51:18.481Z,29.73
2017-11-22T20:53:46.461Z,28.57
2017-11-22T20:56:14.533Z,25.40
2017-11-22T20:58:42.461Z,27.30
2017-11-22T21:01:10.365Z,30.40
2017-11-22T21:03:38.237Z,30.20
2017-11-22T21:06:06.265Z,26.93
2017-11-22T21:08:34.205Z,30.40
2017-11-22T21:11:02.121Z,32.67
2017-11-22T21:13:29.977Z,32.13
2017-11-22T21:15:57.943Z,30.60
2017-11-22T21:18:25.873Z,33.07
2017-11-22T21:20:53.729Z,31.20
2017-11-22T21:23:21.623Z,29.90
2017-11-22T21:25:49.872Z,34.03
2017-11-22T21:28:17.813Z,28.50
2017-11-22T21:30:45.740Z,35.47
2017-11-22T21:33:13.760Z,35.30
2017-11-22T21:35:42.032Z,30.67
2017-11-22T21:38:09.927Z,43.00
2017-11-22T21:40:37.817Z,36.00
2017-11-22T21:43:05.676Z,29.87
2017-11-22T21:45:33.712Z,37.10
2017-11-22T21:48:01.572Z,34.00
2017-11-22T21:50:29.544Z,35.30
2017-11-22T21:52:57.429Z,35.00
2017-11-22T21:55:25.269Z,34.37
2017-11-22T21:57:53.105Z,35.33
2017-11-22T22:00:20.977Z,31.03
2017-11-22T22:02:48.839Z,31.87
2017-11-22T22:05:16.705Z,33.77
2017-11-22T22:07:44.610Z,34.13
2017-11-22T22:10:12.533Z,33.93
2017-11-22T22:12:40.433Z,32.27
2017-11-22T22:15:08.301Z,33.87
2017-11-22T22:17:36.154Z,32.03
2017-11-22T22:20:03.994Z,34.23
2017-11-22T22:22:31.956Z,37.20
2017-11-22T22:24:59.949Z,31.63
2017-11-22T22:27:27.998Z,33.63
2017-11-22T22:29:56.111Z,29.70
2017-11-22T22:32:23.962Z,40.30
2017-11-22T22:34:51.949Z,29.03
2017-11-22T22:37:19.889Z,32.07
2017-11-22T22:39:48.741Z,36.50
2017-11-22T22:42:16.621Z,36.67
2017-11-22T22:44:44.552Z,35.80
2017-11-22T22:47:12.522Z,38.40
2017-11-22T22:49:40.398Z,34.80
2017-11-22T22:52:08.285Z,28.00
2017-11-22T22:54:36.164Z,34.70
2017-11-22T22:57:04.085Z,36.23
2017-11-22T22:59:31.973Z,30.13
2017-11-22T23:01:59.881Z,28.33
2017-11-22T23:04:27.745Z,29.13
2017-11-22T23:06:55.635Z,39.63
2017-11-22T23:09:23.510Z,31.53
2017-11-22T23:11:51.389Z,40.43
2017-11-22T23:14:19.318Z,29.77
2017-11-22T23:16:47.173Z,31.43
2017-11-22T23:19:15.028Z,38.47
2017-11-22T23:21:42.976Z,34.80
2017-11-22T23:24:10.845Z,36.50
2017-11-22T23:26:38.808Z,29.37
2017-11-22T23:29:06.692Z,31.83
2017-11-22T23:31:34.538Z,33.47
2017-11-22T23:34:02.385Z,28.83
2017-11-22T23:36:31.476Z,30.13
2017-11-22T23:38:59.325Z,30.50
2017-11-22T23:41:27.170Z,33.23
2017-11-22T23:43:55.101Z,29.40
2017-11-22T23:46:22.995Z,26.10
2017-11-22T23:48:50.854Z,25.10
2017-11-22T23:51:18.764Z,28.97
2017-11-22T23:53:46.622Z,26.50
2017-11-22T23:56:14.494Z,31.40
2017-11-22T23:58:42.428Z,28.03
